Overview Statistics Trail Chart Weather Telemetry Raw packets
 

This is the latest recevied weather packets stored in our database for station/object IZ7EXI-13. If no packets are shown the sender has not sent any weather packets the latest 10 day(s).

<< 44 45 46 47 48 49 >>
Time Temp. Humidity Pressure Rain* Wind** Luminosity Snow
1787842138 35.56° C 43% 1019.1 hPa - - - -
1787841238 35.56° C 43% 1019 hPa - - - -
1787840369 35.56° C 46% 1019.1 hPa - - - -
1787840338 35.56° C 46% 1019.1 hPa - - - -
1787839471 36.11° C 41% 1018.9 hPa - - - -
1787839438 36.11° C 41% 1018.9 hPa - - - -
1787838537 35.56° C 42% 1019 hPa - - - -
1787837637 36.11° C 41% 1019.3 hPa - - - -
1787836766 35.56° C 41% 1019.3 hPa - - - -
1787836737 35.56° C 41% 1019.3 hPa - - - -
1787835861 35° C 44% 1019.4 hPa - - - -
1787835837 35° C 44% 1019.4 hPa - - - -
1787834936 35° C 45% 1019.5 hPa - - - -
1787834074 36.11° C 41% 1019.5 hPa - - - -
1787834036 36.11° C 41% 1019.5 hPa - - - -
1787833168 35.56° C 44% 1019.7 hPa - - - -
1787833136 35.56° C 44% 1019.7 hPa - - - -
1787832269 36.67° C 33% 1019.7 hPa - - - -
1787832236 36.67° C 33% 1019.7 hPa - - - -
1787831370 35.56° C 38% 1019.8 hPa - - - -
1787831336 35.56° C 38% 1019.8 hPa - - - -
1787830435 34.44° C 45% 1020 hPa - - - -
1787829535 33.33° C 52% 1020.1 hPa - - - -
1787828635 32.78° C 53% 1020.1 hPa - - - -
1787827735 32.22° C 54% 1020.1 hPa - - - -

* Rain since midnight (hover to see other rain measurements)
** Current wind speed in m/s (hover to see current wind gust speed)